Terminal Aerodrome Forecast
Issued by NWS

Home | Current Version | Previous Version | Text Only | Print | Product List | Glossary On
Versions: 1 2 3 4 5 6 7 8 9 10 11 12
000
FTUS43 KAPX 281120
TAFTVC
TAF
KTVC 281120Z 2812/2912 00000KT P6SM FEW250
     FM281400 18006KT P6SM FEW025 BKN200
     FM290200 15005KT P6SM BKN070 WS020/18030KT
     FM291000 16008KT 2SM -SN OVC020=

USA.gov is the U.S. government's official web portal to all federal, state and local government web resources and services.